Rechercher aéroport 
image banner adimage banner ad
image banner ad

EKSY - Skuvoy

Situé à Skuvoy, Faroe Islands

ICAO - EKSY, IATA -

Données fournies par Airmate  

Information générale

Coordonnées: N61°46'10" W6°48'12"
Élévation : 70 feet MSL.
Variation magnétique : -8.1° East
Voir autres Aéroports à (unassigned)

Données opérationnelles

Accessible au public
Heure actuelle UTC:
Heure actuelle locale:
Météo à : EKVG - Vagar ( 41 km )
METAR: EKVG 211650Z AUTO 01031G42KT 9999 -RA BKN019/// 02/M02 Q0981
TAF: TAF EKVG 211405Z 2115/2121 02035G45KT 7000 -SHRASN SCT012 BKN020 TEMPO 2115/2121 2000 SHSNRA BKN008CB
Voir NOTAMs / SUP AIP / TFR affectant cet aéroport [VIEW]
Fréquences de communication: [VIEW]

Pistes:

Coordonnées de l'aéroport

Adresse: Skuvoy Faroe Islands

Vue satellite de EKSY